sensor_id;sensor_type;location;lat;lon;timestamp;pressure;altitude;pressure_sealevel;temperature;humidity
50550;BME280;36505;52.512;13.460;2022-08-23T00:00:43;101228.72;;;19.11;72.04
50550;BME280;36505;52.512;13.460;2022-08-23T00:03:08;101230.69;;;19.10;71.72
50550;BME280;36505;52.512;13.460;2022-08-23T00:05:34;101235.09;;;19.11;72.11
50550;BME280;36505;52.512;13.460;2022-08-23T00:07:59;101234.00;;;19.12;72.23
50550;BME280;36505;52.512;13.460;2022-08-23T00:10:25;101226.78;;;19.11;72.60
50550;BME280;36505;52.512;13.460;2022-08-23T00:12:50;101223.16;;;19.11;72.66
50550;BME280;36505;52.512;13.460;2022-08-23T00:15:18;101222.38;;;19.10;72.60
50550;BME280;36505;52.512;13.460;2022-08-23T00:17:44;101221.81;;;19.08;72.91
50550;BME280;36505;52.512;13.460;2022-08-23T00:20:14;101219.59;;;19.05;72.37
50550;BME280;36505;52.512;13.460;2022-08-23T00:22:39;101212.72;;;19.03;72.68
50550;BME280;36505;52.512;13.460;2022-08-23T00:25:07;101222.16;;;19.02;72.79
50550;BME280;36505;52.512;13.460;2022-08-23T00:27:34;101220.22;;;18.97;72.77
50550;BME280;36505;52.512;13.460;2022-08-23T00:29:59;101219.16;;;18.93;72.85
50550;BME280;36505;52.512;13.460;2022-08-23T00:32:30;101211.69;;;18.88;72.94
50550;BME280;36505;52.512;13.460;2022-08-23T00:34:57;101211.97;;;18.87;72.93
50550;BME280;36505;52.512;13.460;2022-08-23T00:37:24;101214.75;;;18.87;73.00
50550;BME280;36505;52.512;13.460;2022-08-23T00:39:50;101201.44;;;18.84;72.90
50550;BME280;36505;52.512;13.460;2022-08-23T00:42:33;101201.75;;;18.82;72.71
50550;BME280;36505;52.512;13.460;2022-08-23T00:45:34;101186.03;;;18.68;73.44
50550;BME280;36505;52.512;13.460;2022-08-23T00:48:20;101199.31;;;18.76;73.07
50550;BME280;36505;52.512;13.460;2022-08-23T00:50:59;101199.88;;;18.73;73.23
50550;BME280;36505;52.512;13.460;2022-08-23T00:53:34;101202.09;;;18.71;73.01
50550;BME280;36505;52.512;13.460;2022-08-23T00:56:04;101194.38;;;18.68;73.05
50550;BME280;36505;52.512;13.460;2022-08-23T00:58:31;101189.94;;;18.67;73.60
50550;BME280;36505;52.512;13.460;2022-08-23T01:00:58;101194.41;;;18.63;73.68
50550;BME280;36505;52.512;13.460;2022-08-23T01:03:27;101188.03;;;18.62;73.02
50550;BME280;36505;52.512;13.460;2022-08-23T01:06:18;101190.50;;;18.64;73.08
50550;BME280;36505;52.512;13.460;2022-08-23T01:08:50;101188.03;;;18.62;73.03
50550;BME280;36505;52.512;13.460;2022-08-23T01:11:33;101187.75;;;18.59;72.97
50550;BME280;36505;52.512;13.460;2022-08-23T01:14:13;101188.59;;;18.59;72.57
50550;BME280;36505;52.512;13.460;2022-08-23T01:16:48;101191.06;;;18.61;72.88
50550;BME280;36505;52.512;13.460;2022-08-23T01:19:29;101188.03;;;18.62;72.43
50550;BME280;36505;52.512;13.460;2022-08-23T01:24:33;101200.44;;;18.70;72.11
50550;BME280;36505;52.512;13.460;2022-08-23T01:27:00;101197.66;;;18.70;72.11
50550;BME280;36505;52.512;13.460;2022-08-23T01:29:25;101201.25;;;18.70;72.22
50550;BME280;36505;52.512;13.460;2022-08-23T01:31:52;101197.38;;;18.71;71.96
50550;BME280;36505;52.512;13.460;2022-08-23T01:34:17;101200.16;;;18.71;71.87
50550;BME280;36505;52.512;13.460;2022-08-23T01:36:44;101197.38;;;18.71;72.14
50550;BME280;36505;52.512;13.460;2022-08-23T01:39:10;101199.88;;;18.73;72.34
50550;BME280;36505;52.512;13.460;2022-08-23T01:41:35;101195.47;;;18.67;71.73
50550;BME280;36505;52.512;13.460;2022-08-23T01:44:04;101192.97;;;18.65;71.65
50550;BME280;36505;52.512;13.460;2022-08-23T01:46:30;101203.22;;;18.70;71.63
50550;BME280;36505;52.512;13.460;2022-08-23T01:48:55;101201.25;;;18.70;71.81
50550;BME280;36505;52.512;13.460;2022-08-23T01:51:23;101208.47;;;18.71;71.84
50550;BME280;36505;52.512;13.460;2022-08-23T01:53:48;101205.41;;;18.73;71.49
50550;BME280;36505;52.512;13.460;2022-08-23T01:56:15;101200.69;;;18.73;71.56
50550;BME280;36505;52.512;13.460;2022-08-23T01:58:44;101205.41;;;18.73;71.71
50550;BME280;36505;52.512;13.460;2022-08-23T02:01:09;101198.47;;;18.75;71.73
50550;BME280;36505;52.512;13.460;2022-08-23T02:03:35;101207.63;;;18.76;72.25
50550;BME280;36505;52.512;13.460;2022-08-23T02:06:02;101203.19;;;18.75;72.02
50550;BME280;36505;52.512;13.460;2022-08-23T02:08:27;101197.38;;;18.71;71.69
50550;BME280;36505;52.512;13.460;2022-08-23T02:11:17;101194.09;;;18.69;71.72
50550;BME280;36505;52.512;13.460;2022-08-23T02:13:43;101195.47;;;18.67;71.94
50550;BME280;36505;52.512;13.460;2022-08-23T02:16:10;101191.31;;;18.64;71.72
50550;BME280;36505;52.512;13.460;2022-08-23T02:18:36;101192.97;;;18.65;71.46
50550;BME280;36505;52.512;13.460;2022-08-23T02:21:03;101194.94;;;18.65;71.15
50550;BME280;36505;52.512;13.460;2022-08-23T02:23:28;101201.06;;;18.62;71.00
50550;BME280;36505;52.512;13.460;2022-08-23T02:25:54;101182.81;;;18.56;70.74
50550;BME280;36505;52.512;13.460;2022-08-23T02:28:22;101197.75;;;18.54;71.03
50550;BME280;36505;52.512;13.460;2022-08-23T02:30:48;101190.31;;;18.45;71.33
50550;BME280;36505;52.512;13.460;2022-08-23T02:33:14;101194.47;;;18.42;70.93
50550;BME280;36505;52.512;13.460;2022-08-23T02:35:40;101185.63;;;18.40;71.33
50550;BME280;36505;52.512;13.460;2022-08-23T02:38:08;101195.88;;;18.40;71.26
50550;BME280;36505;52.512;13.460;2022-08-23T02:40:35;101182.03;;;18.40;71.42
50550;BME280;36505;52.512;13.460;2022-08-23T02:43:02;101182.88;;;18.35;71.66
50550;BME280;36505;52.512;13.460;2022-08-23T02:45:28;101187.59;;;18.35;71.37
50550;BME280;36505;52.512;13.460;2022-08-23T02:47:54;101171.28;;;18.23;71.36
50550;BME280;36505;52.512;13.460;2022-08-23T02:50:20;101189.22;;;18.36;71.69
50550;BME280;36505;52.512;13.460;2022-08-23T02:52:46;101199.53;;;18.35;71.33
50550;BME280;36505;52.512;13.460;2022-08-23T02:55:11;101195.66;;;18.31;71.49
50550;BME280;36505;52.512;13.460;2022-08-23T02:57:37;101206.19;;;18.29;71.79
50550;BME280;36505;52.512;13.460;2022-08-23T03:00:05;101206.50;;;18.28;71.70
50550;BME280;36505;52.512;13.460;2022-08-23T03:02:32;101207.31;;;18.23;71.79
50550;BME280;36505;52.512;13.460;2022-08-23T03:04:57;101206.22;;;18.24;72.18
50550;BME280;36505;52.512;13.460;2022-08-23T03:07:23;101207.91;;;18.20;72.06
50550;BME280;36505;52.512;13.460;2022-08-23T03:09:48;101200.09;;;18.22;72.48
50550;BME280;36505;52.512;13.460;2022-08-23T03:12:14;101198.47;;;18.21;71.94
50550;BME280;36505;52.512;13.460;2022-08-23T03:14:39;101205.13;;;18.20;72.52
50550;BME280;36505;52.512;13.460;2022-08-23T03:17:05;101210.13;;;18.18;72.19
50550;BME280;36505;52.512;13.460;2022-08-23T03:19:32;101210.41;;;18.22;72.46
50550;BME280;36505;52.512;13.460;2022-08-23T03:21:57;101223.69;;;18.25;72.42
50550;BME280;36505;52.512;13.460;2022-08-23T03:24:23;101220.06;;;18.24;72.51
50550;BME280;36505;52.512;13.460;2022-08-23T03:26:48;101220.06;;;18.24;72.26
50550;BME280;36505;52.512;13.460;2022-08-23T03:29:13;101223.13;;;18.23;72.77
50550;BME280;36505;52.512;13.460;2022-08-23T03:31:39;101210.41;;;18.22;72.62
50550;BME280;36505;52.512;13.460;2022-08-23T03:34:05;101220.34;;;18.23;72.65
50550;BME280;36505;52.512;13.460;2022-08-23T03:36:31;101218.41;;;18.23;72.76
50550;BME280;36505;52.512;13.460;2022-08-23T03:38:57;101225.66;;;18.19;72.96
50550;BME280;36505;52.512;13.460;2022-08-23T03:41:23;101231.75;;;18.21;73.22
50550;BME280;36505;52.512;13.460;2022-08-23T03:43:49;101231.16;;;18.24;73.52
50550;BME280;36505;52.512;13.460;2022-08-23T03:46:14;101234.50;;;18.21;73.35
50550;BME280;36505;52.512;13.460;2022-08-23T03:48:55;101240.06;;;18.21;73.73
50550;BME280;36505;52.512;13.460;2022-08-23T03:51:23;101238.91;;;18.22;73.28
50550;BME280;36505;52.512;13.460;2022-08-23T03:53:48;101234.50;;;18.21;73.54
50550;BME280;36505;52.512;13.460;2022-08-23T03:56:25;101233.66;;;18.26;73.64
50550;BME280;36505;52.512;13.460;2022-08-23T03:58:52;101233.38;;;18.27;73.60
50550;BME280;36505;52.512;13.460;2022-08-23T04:01:18;101229.50;;;18.28;73.84
50550;BME280;36505;52.512;13.460;2022-08-23T04:03:43;101231.44;;;18.28;73.49
50550;BME280;36505;52.512;13.460;2022-08-23T04:06:09;101232.28;;;18.28;73.92
50550;BME280;36505;52.512;13.460;2022-08-23T04:08:35;101231.44;;;18.28;74.01
50550;BME280;36505;52.512;13.460;2022-08-23T04:11:01;101225.63;;;18.24;74.33
50550;BME280;36505;52.512;13.460;2022-08-23T04:13:27;101233.91;;;18.29;73.87
50550;BME280;36505;52.512;13.460;2022-08-23T04:15:54;101237.50;;;18.30;74.08
50550;BME280;36505;52.512;13.460;2022-08-23T04:18:19;101235.00;;;18.33;73.98
50550;BME280;36505;52.512;13.460;2022-08-23T04:20:45;101229.47;;;18.33;73.83
50550;BME280;36505;52.512;13.460;2022-08-23T04:23:11;101230.81;;;18.36;74.17
50550;BME280;36505;52.512;13.460;2022-08-23T04:25:37;101229.19;;;18.35;73.88
50550;BME280;36505;52.512;13.460;2022-08-23T04:28:03;101226.97;;;18.32;73.85
50550;BME280;36505;52.512;13.460;2022-08-23T04:30:29;101221.19;;;18.28;74.52
50550;BME280;36505;52.512;13.460;2022-08-23T04:32:55;101219.78;;;18.26;74.31
50550;BME280;36505;52.512;13.460;2022-08-23T04:35:20;101232.28;;;18.28;74.42
50550;BME280;36505;52.512;13.460;2022-08-23T04:37:46;101238.38;;;18.25;74.42
50550;BME280;36505;52.512;13.460;2022-08-23T04:40:11;101240.59;;;18.28;74.18
50550;BME280;36505;52.512;13.460;2022-08-23T04:42:55;101243.88;;;18.30;74.23
50550;BME280;36505;52.512;13.460;2022-08-23T04:45:21;101245.81;;;18.35;74.03
50550;BME280;36505;52.512;13.460;2022-08-23T04:47:47;101244.41;;;18.37;74.31
50550;BME280;36505;52.512;13.460;2022-08-23T04:50:12;101244.69;;;18.41;74.22
50550;BME280;36505;52.512;13.460;2022-08-23T04:52:38;101248.28;;;18.41;73.95
50550;BME280;36505;52.512;13.460;2022-08-23T04:55:03;101252.41;;;18.44;73.77
50550;BME280;36505;52.512;13.460;2022-08-23T04:57:29;101249.91;;;18.42;73.93
50550;BME280;36505;52.512;13.460;2022-08-23T04:59:55;101258.78;;;18.44;74.18
50550;BME280;36505;52.512;13.460;2022-08-23T05:02:21;101259.34;;;18.46;74.01
50550;BME280;36505;52.512;13.460;2022-08-23T05:04:47;101258.75;;;18.49;74.09
50550;BME280;36505;52.512;13.460;2022-08-23T05:07:12;101258.25;;;18.47;74.08
50550;BME280;36505;52.512;13.460;2022-08-23T05:09:39;101261.81;;;18.53;73.66
50550;BME280;36505;52.512;13.460;2022-08-23T05:12:05;101272.63;;;18.54;73.69
50550;BME280;36505;52.512;13.460;2022-08-23T05:14:30;101268.19;;;18.59;73.40
50550;BME280;36505;52.512;13.460;2022-08-23T05:16:55;101272.34;;;18.61;73.38
50550;BME280;36505;52.512;13.460;2022-08-23T05:19:21;101272.59;;;18.65;73.67
50550;BME280;36505;52.512;13.460;2022-08-23T05:21:47;101270.09;;;18.63;73.33
50550;BME280;36505;52.512;13.460;2022-08-23T05:24:12;101267.63;;;18.62;73.70
50550;BME280;36505;52.512;13.460;2022-08-23T05:26:37;101278.97;;;18.65;73.05
50550;BME280;36505;52.512;13.460;2022-08-23T05:29:03;101282.03;;;18.69;73.81
50550;BME280;36505;52.512;13.460;2022-08-23T05:31:29;101274.53;;;18.69;73.68
50550;BME280;36505;52.512;13.460;2022-08-23T05:33:55;101264.22;;;18.70;73.41
50550;BME280;36505;52.512;13.460;2022-08-23T05:36:21;101272.84;;;18.73;73.23
50550;BME280;36505;52.512;13.460;2022-08-23T05:38:47;101280.31;;;18.73;73.42
50550;BME280;36505;52.512;13.460;2022-08-23T05:41:14;101275.56;;;18.78;73.56
50550;BME280;36505;52.512;13.460;2022-08-23T05:43:41;101285.28;;;18.81;73.69
50550;BME280;36505;52.512;13.460;2022-08-23T05:46:20;101278.06;;;18.80;73.53
50550;BME280;36505;52.512;13.460;2022-08-23T05:48:48;101275.28;;;18.80;73.46
50550;BME280;36505;52.512;13.460;2022-08-23T05:51:30;101269.69;;;18.85;73.42
50550;BME280;36505;52.512;13.460;2022-08-23T05:53:58;101273.03;;;18.87;73.39
50550;BME280;36505;52.512;13.460;2022-08-23T05:56:25;101276.63;;;18.87;73.56
50550;BME280;36505;52.512;13.460;2022-08-23T05:58:54;101275.25;;;18.90;73.47
50550;BME280;36505;52.512;13.460;2022-08-23T06:01:21;101279.09;;;18.94;73.39
50550;BME280;36505;52.512;13.460;2022-08-23T06:03:47;101275.44;;;18.99;73.30
50550;BME280;36505;52.512;13.460;2022-08-23T06:06:13;101282.38;;;19.01;72.97
50550;BME280;36505;52.512;13.460;2022-08-23T06:08:40;101292.59;;;19.06;72.94
50550;BME280;36505;52.512;13.460;2022-08-23T06:13:59;101297.00;;;19.12;73.11
50550;BME280;36505;52.512;13.460;2022-08-23T06:16:28;101295.59;;;19.14;72.56
50550;BME280;36505;52.512;13.460;2022-08-23T06:18:55;101298.06;;;19.21;72.88
50550;BME280;36505;52.512;13.460;2022-08-23T06:21:22;101303.84;;;19.29;72.39
50550;BME280;36505;52.512;13.460;2022-08-23T06:23:48;101306.00;;;19.38;72.03
50550;BME280;36505;52.512;13.460;2022-08-23T06:26:22;101300.13;;;19.44;71.64
50550;BME280;36505;52.512;13.460;2022-08-23T06:28:51;101299.53;;;19.47;71.79
50550;BME280;36505;52.512;13.460;2022-08-23T06:31:18;101298.97;;;19.50;71.55
50550;BME280;36505;52.512;13.460;2022-08-23T06:34:04;101292.22;;;19.61;71.06
50550;BME280;36505;52.512;13.460;2022-08-23T06:36:29;101300.75;;;19.70;71.15
50550;BME280;36505;52.512;13.460;2022-08-23T06:38:54;101304.03;;;19.77;70.78
50550;BME280;36505;52.512;13.460;2022-08-23T06:41:20;101304.44;;;19.89;70.49
50550;BME280;36505;52.512;13.460;2022-08-23T06:43:45;101300.44;;;20.00;70.34
50550;BME280;36505;52.512;13.460;2022-08-23T06:46:14;101307.88;;;20.34;69.07
50550;BME280;36505;52.512;13.460;2022-08-23T06:48:41;101309.19;;;20.65;68.30
50550;BME280;36505;52.512;13.460;2022-08-23T06:53:47;101307.41;;;22.82;61.80
50550;BME280;36505;52.512;13.460;2022-08-23T06:56:13;101298.69;;;24.09;58.23
50550;BME280;36505;52.512;13.460;2022-08-23T06:58:38;101308.19;;;24.30;56.48
50550;BME280;36505;52.512;13.460;2022-08-23T07:01:26;101309.56;;;23.80;57.51
50550;BME280;36505;52.512;13.460;2022-08-23T07:03:53;101299.97;;;23.50;58.10
50550;BME280;36505;52.512;13.460;2022-08-23T07:06:23;101309.78;;;23.25;59.02
50550;BME280;36505;52.512;13.460;2022-08-23T07:08:49;101315.44;;;22.98;59.79
50550;BME280;36505;52.512;13.460;2022-08-23T07:11:15;101313.81;;;22.83;60.54
50550;BME280;36505;52.512;13.460;2022-08-23T07:13:41;101306.56;;;22.55;60.92
50550;BME280;36505;52.512;13.460;2022-08-23T07:16:06;101305.44;;;22.42;61.42
50550;BME280;36505;52.512;13.460;2022-08-23T07:18:32;101300.16;;;22.27;62.39
50550;BME280;36505;52.512;13.460;2022-08-23T07:21:00;101308.09;;;22.06;62.74
50550;BME280;36505;52.512;13.460;2022-08-23T07:23:27;101305.19;;;21.65;63.97
50550;BME280;36505;52.512;13.460;2022-08-23T07:25:58;101307.31;;;21.54;64.95
50550;BME280;36505;52.512;13.460;2022-08-23T07:28:23;101307.31;;;21.54;65.14
50550;BME280;36505;52.512;13.460;2022-08-23T07:30:49;101302.81;;;21.40;65.75
50550;BME280;36505;52.512;13.460;2022-08-23T07:33:14;101309.91;;;21.32;66.06
50550;BME280;36505;52.512;13.460;2022-08-23T07:35:46;101303.75;;;21.35;66.14
50550;BME280;36505;52.512;13.460;2022-08-23T07:38:12;101308.94;;;21.42;66.41
50550;BME280;36505;52.512;13.460;2022-08-23T07:40:37;101318.31;;;21.46;66.41
50550;BME280;36505;52.512;13.460;2022-08-23T07:43:02;101304.41;;;21.46;66.76
50550;BME280;36505;52.512;13.460;2022-08-23T07:45:28;101315.59;;;21.59;66.41
50550;BME280;36505;52.512;13.460;2022-08-23T07:47:53;101309.94;;;21.64;65.71
50550;BME280;36505;52.512;13.460;2022-08-23T07:50:18;101316.28;;;21.51;65.71
50550;BME280;36505;52.512;13.460;2022-08-23T07:52:44;101314.03;;;21.53;65.68
50550;BME280;36505;52.512;13.460;2022-08-23T07:55:09;101320.72;;;21.52;65.81
50550;BME280;36505;52.512;13.460;2022-08-23T07:57:34;101310.94;;;21.55;66.05
50550;BME280;36505;52.512;13.460;2022-08-23T08:00:00;101321.25;;;21.54;66.01
50550;BME280;36505;52.512;13.460;2022-08-23T08:02:25;101322.19;;;21.63;66.03
50550;BME280;36505;52.512;13.460;2022-08-23T08:04:51;101324.69;;;21.65;65.41
50550;BME280;36505;52.512;13.460;2022-08-23T08:07:16;101335.19;;;21.54;65.65
50550;BME280;36505;52.512;13.460;2022-08-23T08:09:41;101326.97;;;21.44;65.96
50550;BME280;36505;52.512;13.460;2022-08-23T08:12:07;101326.25;;;21.39;65.64
50550;BME280;36505;52.512;13.460;2022-08-23T08:14:32;101320.38;;;21.40;65.68
50550;BME280;36505;52.512;13.460;2022-08-23T08:16:58;101330.94;;;21.57;65.63
50550;BME280;36505;52.512;13.460;2022-08-23T08:19:24;101328.09;;;21.62;65.06
50550;BME280;36505;52.512;13.460;2022-08-23T08:21:50;101327.09;;;21.72;64.62
50550;BME280;36505;52.512;13.460;2022-08-23T08:24:16;101326.22;;;21.90;64.41
50550;BME280;36505;52.512;13.460;2022-08-23T08:26:43;101329.56;;;22.05;64.10
50550;BME280;36505;52.512;13.460;2022-08-23T08:29:09;101327.50;;;21.97;64.02
50550;BME280;36505;52.512;13.460;2022-08-23T08:31:42;101326.09;;;22.14;63.85
50550;BME280;36505;52.512;13.460;2022-08-23T08:34:08;101330.56;;;22.28;63.91
50550;BME280;36505;52.512;13.460;2022-08-23T08:36:38;101323.63;;;22.39;63.52
50550;BME280;36505;52.512;13.460;2022-08-23T08:39:10;101323.00;;;22.56;63.12
50550;BME280;36505;52.512;13.460;2022-08-23T08:44:52;101322.91;;;22.61;61.59
50550;BME280;36505;52.512;13.460;2022-08-23T08:50:24;101321.03;;;22.98;60.93
50550;BME280;36505;52.512;13.460;2022-08-23T08:55:32;101324.09;;;23.10;60.14
50550;BME280;36505;52.512;13.460;2022-08-23T08:58:00;101335.09;;;23.06;60.65
50550;BME280;36505;52.512;13.460;2022-08-23T09:00:31;101328.28;;;22.99;60.84
50550;BME280;36505;52.512;13.460;2022-08-23T09:02:58;101335.69;;;23.03;60.29
50550;BME280;36505;52.512;13.460;2022-08-23T09:05:29;101333.66;;;22.95;59.59
50550;BME280;36505;52.512;13.460;2022-08-23T09:16:43;101337.97;;;23.01;60.14
50550;BME280;36505;52.512;13.460;2022-08-23T09:19:10;101336.84;;;23.02;60.12
50550;BME280;36505;52.512;13.460;2022-08-23T09:21:46;101340.75;;;23.01;59.37
50550;BME280;36505;52.512;13.460;2022-08-23T09:24:12;101335.91;;;22.93;59.08
50550;BME280;36505;52.512;13.460;2022-08-23T09:26:38;101336.66;;;22.99;58.66
50550;BME280;36505;52.512;13.460;2022-08-23T09:29:16;101335.13;;;22.93;58.21
50550;BME280;36505;52.512;13.460;2022-08-23T09:31:54;101327.66;;;22.88;58.03
50550;BME280;36505;52.512;13.460;2022-08-23T09:34:37;101331.09;;;22.85;58.13
50550;BME280;36505;52.512;13.460;2022-08-23T09:37:22;101334.91;;;22.89;58.86
50550;BME280;36505;52.512;13.460;2022-08-23T09:39:52;101331.09;;;22.85;58.86
50550;BME280;36505;52.512;13.460;2022-08-23T09:42:37;101334.59;;;22.91;58.46
50550;BME280;36505;52.512;13.460;2022-08-23T09:45:26;101336.97;;;22.83;58.59
50550;BME280;36505;52.512;13.460;2022-08-23T09:47:51;101340.28;;;22.86;59.22
50550;BME280;36505;52.512;13.460;2022-08-23T09:50:24;101348.16;;;22.83;58.83
50550;BME280;36505;52.512;13.460;2022-08-23T09:53:01;101340.91;;;22.82;59.02
50550;BME280;36505;52.512;13.460;2022-08-23T09:55:38;101331.59;;;22.87;58.70
50550;BME280;36505;52.512;13.460;2022-08-23T09:58:40;101332.94;;;22.90;58.92
50550;BME280;36505;52.512;13.460;2022-08-23T10:03:36;101339.44;;;22.71;58.87
50550;BME280;36505;52.512;13.460;2022-08-23T10:06:02;101330.69;;;22.78;58.91
50550;BME280;36505;52.512;13.460;2022-08-23T10:08:30;101333.25;;;22.74;58.75
50550;BME280;36505;52.512;13.460;2022-08-23T10:11:39;101335.84;;;22.84;58.74
50550;BME280;36505;52.512;13.460;2022-08-23T10:14:03;101328.31;;;22.85;58.55
50550;BME280;36505;52.512;13.460;2022-08-23T10:24:57;101330.72;;;23.00;58.21
50550;BME280;36505;52.512;13.460;2022-08-23T10:30:50;101325.19;;;23.22;57.07
50550;BME280;36505;52.512;13.460;2022-08-23T10:38:58;101324.50;;;23.53;56.22
50550;BME280;36505;52.512;13.460;2022-08-23T10:49:36;101329.06;;;23.71;55.56
50550;BME280;36505;52.512;13.460;2022-08-23T10:52:05;101331.03;;;23.71;54.22
50550;BME280;36505;52.512;13.460;2022-08-23T10:54:40;101325.13;;;23.72;53.89
50550;BME280;36505;52.512;13.460;2022-08-23T10:57:16;101312.34;;;23.80;54.12
50550;BME280;36505;52.512;13.460;2022-08-23T10:59:45;101320.44;;;23.81;53.56
50550;BME280;36505;52.512;13.460;2022-08-23T11:05:05;101324.16;;;23.99;54.18
50550;BME280;36505;52.512;13.460;2022-08-23T11:07:34;101324.53;;;24.06;52.74
50550;BME280;36505;52.512;13.460;2022-08-23T11:12:31;101329.13;;;24.11;53.29
50550;BME280;36505;52.512;13.460;2022-08-23T11:15:09;101328.16;;;24.07;52.74
50550;BME280;36505;52.512;13.460;2022-08-23T11:17:54;101324.84;;;24.05;52.81
50550;BME280;36505;52.512;13.460;2022-08-23T11:25:42;101332.97;;;24.15;53.02
50550;BME280;36505;52.512;13.460;2022-08-23T11:43:47;101331.97;;;23.88;53.04
50550;BME280;36505;52.512;13.460;2022-08-23T11:46:27;101332.09;;;23.83;53.06
50550;BME280;36505;52.512;13.460;2022-08-23T12:18:38;101351.25;;;25.00;48.06
50550;BME280;36505;52.512;13.460;2022-08-23T12:21:06;101347.16;;;25.14;47.58
50550;BME280;36505;52.512;13.460;2022-08-23T12:23:45;101343.38;;;25.19;47.60
50550;BME280;36505;52.512;13.460;2022-08-23T12:29:08;101346.03;;;25.33;47.19
50550;BME280;36505;52.512;13.460;2022-08-23T12:31:45;101353.81;;;25.44;47.53
50550;BME280;36505;52.512;13.460;2022-08-23T12:36:47;101332.34;;;25.48;45.99
50550;BME280;36505;52.512;13.460;2022-08-23T12:39:33;101336.97;;;25.44;45.33
50550;BME280;36505;52.512;13.460;2022-08-23T12:44:35;101331.84;;;25.03;46.74
50550;BME280;36505;52.512;13.460;2022-08-23T12:47:13;101330.00;;;24.99;47.50
50550;BME280;36505;52.512;13.460;2022-08-23T12:49:39;101331.44;;;24.88;48.26
50550;BME280;36505;52.512;13.460;2022-08-23T12:52:08;101325.31;;;24.77;49.27
50550;BME280;36505;52.512;13.460;2022-08-23T12:54:41;101320.53;;;24.69;49.38
50550;BME280;36505;52.512;13.460;2022-08-23T12:57:08;101326.28;;;24.72;49.39
50550;BME280;36505;52.512;13.460;2022-08-23T12:59:55;101327.75;;;24.61;49.04
50550;BME280;36505;52.512;13.460;2022-08-23T13:02:25;101323.09;;;24.48;48.92
50550;BME280;36505;52.512;13.460;2022-08-23T13:04:54;101327.34;;;24.46;49.12
50550;BME280;36505;52.512;13.460;2022-08-23T13:07:22;101327.69;;;24.44;48.65
50550;BME280;36505;52.512;13.460;2022-08-23T13:09:49;101325.84;;;24.39;48.32
50550;BME280;36505;52.512;13.460;2022-08-23T13:12:16;101313.84;;;24.39;48.20
50550;BME280;36505;52.512;13.460;2022-08-23T13:14:48;101317.00;;;24.46;46.86
50550;BME280;36505;52.512;13.460;2022-08-23T13:19:42;101311.44;;;24.55;47.40
50550;BME280;36505;52.512;13.460;2022-08-23T13:22:25;101307.69;;;24.68;46.01
50550;BME280;36505;52.512;13.460;2022-08-23T13:27:30;101306.69;;;24.72;45.44
50550;BME280;36505;52.512;13.460;2022-08-23T13:29:57;101313.28;;;24.68;46.04
50550;BME280;36505;52.512;13.460;2022-08-23T13:32:27;101305.84;;;24.63;45.55
50550;BME280;36505;52.512;13.460;2022-08-23T13:34:52;101308.16;;;24.61;45.78
50550;BME280;36505;52.512;13.460;2022-08-23T13:37:27;101298.41;;;24.59;46.29
50550;BME280;36505;52.512;13.460;2022-08-23T13:39:56;101294.78;;;24.58;45.48
50550;BME280;36505;52.512;13.460;2022-08-23T13:42:45;101301.25;;;24.67;46.13
50550;BME280;36505;52.512;13.460;2022-08-23T13:45:46;101291.84;;;24.72;45.80
50550;BME280;36505;52.512;13.460;2022-08-23T13:48:15;101295.50;;;24.81;46.18
50550;BME280;36505;52.512;13.460;2022-08-23T13:50:43;101295.03;;;24.88;46.58
50550;BME280;36505;52.512;13.460;2022-08-23T13:53:09;101295.56;;;24.98;46.48
50550;BME280;36505;52.512;13.460;2022-08-23T13:55:40;101300.03;;;25.08;46.22
50550;BME280;36505;52.512;13.460;2022-08-23T13:58:36;101299.38;;;25.11;45.85
50550;BME280;36505;52.512;13.460;2022-08-23T14:01:03;101287.00;;;25.03;46.08
50550;BME280;36505;52.512;13.460;2022-08-23T14:03:30;101292.41;;;24.91;46.82
50550;BME280;36505;52.512;13.460;2022-08-23T14:05:58;101296.84;;;24.84;47.02
50550;BME280;36505;52.512;13.460;2022-08-23T14:08:23;101308.84;;;24.75;47.24
50550;BME280;36505;52.512;13.460;2022-08-23T14:10:49;101305.34;;;24.61;47.36
50550;BME280;36505;52.512;13.460;2022-08-23T14:13:16;101308.66;;;24.63;47.56
50550;BME280;36505;52.512;13.460;2022-08-23T14:15:43;101296.63;;;24.63;47.71
50550;BME280;36505;52.512;13.460;2022-08-23T14:18:10;101299.75;;;24.61;48.15
50550;BME280;36505;52.512;13.460;2022-08-23T14:20:36;101305.97;;;24.58;48.28
50550;BME280;36505;52.512;13.460;2022-08-23T14:23:02;101292.81;;;24.59;48.47
50550;BME280;36505;52.512;13.460;2022-08-23T14:25:27;101311.22;;;24.51;48.70
50550;BME280;36505;52.512;13.460;2022-08-23T14:27:52;101306.47;;;24.52;49.02
50550;BME280;36505;52.512;13.460;2022-08-23T14:30:31;101304.13;;;24.45;49.13
50550;BME280;36505;52.512;13.460;2022-08-23T14:32:58;101300.50;;;24.36;49.12
50550;BME280;36505;52.512;13.460;2022-08-23T14:35:24;101297.53;;;24.41;49.23
50550;BME280;36505;52.512;13.460;2022-08-23T14:37:49;101292.63;;;24.47;49.13
50550;BME280;36505;52.512;13.460;2022-08-23T14:40:15;101288.84;;;24.43;48.92
50550;BME280;36505;52.512;13.460;2022-08-23T14:42:41;101288.84;;;24.43;49.49
50550;BME280;36505;52.512;13.460;2022-08-23T14:45:07;101290.94;;;24.37;49.90
50550;BME280;36505;52.512;13.460;2022-08-23T14:47:33;101281.38;;;24.38;48.97
50550;BME280;36505;52.512;13.460;2022-08-23T14:50:00;101283.19;;;24.34;49.29
50550;BME280;36505;52.512;13.460;2022-08-23T14:52:25;101278.38;;;24.26;49.94